createdAt,value
2019-04-03T00:00:40.528Z,4.00
2019-04-03T00:01:40.517Z,4.00
2019-04-03T00:02:40.538Z,4.40
2019-04-03T00:03:40.532Z,3.80
2019-04-03T00:04:40.488Z,4.00
2019-04-03T00:05:40.480Z,4.20
2019-04-03T00:06:40.462Z,4.10
2019-04-03T00:07:40.617Z,4.20
2019-04-03T00:08:40.468Z,4.10
2019-04-03T00:09:40.462Z,4.20
2019-04-03T00:10:40.417Z,4.10
2019-04-03T00:11:40.430Z,4.40
2019-04-03T00:12:41.071Z,4.10
2019-04-03T00:13:42.208Z,4.20
2019-04-03T00:14:42.240Z,4.40
2019-04-03T00:15:40.370Z,3.90
2019-04-03T00:16:40.359Z,3.90
2019-04-03T00:17:40.347Z,3.90
2019-04-03T00:18:40.367Z,3.90
2019-04-03T00:19:40.341Z,4.20
2019-04-03T00:20:40.303Z,4.30
2019-04-03T00:21:40.315Z,4.10
2019-04-03T00:22:40.297Z,4.30
2019-04-03T00:23:40.455Z,4.10
2019-04-03T00:24:40.313Z,4.00
2019-04-03T00:25:40.258Z,4.10
2019-04-03T00:26:40.242Z,4.00
2019-04-03T00:27:40.226Z,4.00
2019-04-03T00:28:40.250Z,4.20
2019-04-03T00:29:40.209Z,4.00
2019-04-03T00:30:40.197Z,4.00
2019-04-03T00:31:40.183Z,3.70
2019-04-03T00:32:40.178Z,4.00
2019-04-03T00:33:40.199Z,4.20
2019-04-03T00:34:40.148Z,4.00
2019-04-03T00:35:40.173Z,4.10
2019-04-03T00:36:40.130Z,4.00
2019-04-03T00:37:40.114Z,3.80
2019-04-03T00:38:40.136Z,4.10
2019-04-03T00:39:40.095Z,3.60
2019-04-03T00:40:40.087Z,4.30
2019-04-03T00:41:40.074Z,4.20
2019-04-03T00:42:40.084Z,4.10
2019-04-03T00:43:40.187Z,4.10
2019-04-03T00:44:40.052Z,3.90
2019-04-03T00:45:40.162Z,4.20
2019-04-03T00:46:40.026Z,4.30
2019-04-03T00:47:40.000Z,4.30
2019-04-03T00:48:39.989Z,4.00
2019-04-03T00:49:40.033Z,4.00
2019-04-03T00:50:40.017Z,3.90
2019-04-03T00:51:39.981Z,4.20
2019-04-03T00:52:39.978Z,4.40
2019-04-03T00:53:39.957Z,4.20
2019-04-03T00:54:39.952Z,4.70
2019-04-03T00:55:39.928Z,4.90
2019-04-03T00:56:39.922Z,4.70
2019-04-03T00:57:39.896Z,5.00
2019-04-03T00:58:39.913Z,5.20
2019-04-03T00:59:39.891Z,5.20
2019-04-03T01:00:39.858Z,4.90
2019-04-03T01:01:39.940Z,4.20
2019-04-03T01:02:39.853Z,4.50
2019-04-03T01:03:39.833Z,4.30
2019-04-03T01:04:39.839Z,4.20
2019-04-03T01:05:39.813Z,4.20
2019-04-03T01:06:39.926Z,4.30
2019-04-03T01:07:39.783Z,4.00
2019-04-03T01:08:39.783Z,3.80
2019-04-03T01:09:39.781Z,4.00
2019-04-03T01:10:39.751Z,3.90
2019-04-03T01:11:39.749Z,4.00
2019-04-03T01:12:39.729Z,3.70
2019-04-03T01:13:39.718Z,4.00
2019-04-03T01:14:39.722Z,3.90
2019-04-03T01:15:39.709Z,4.10
2019-04-03T01:16:39.677Z,4.20
2019-04-03T01:17:39.703Z,4.00
2019-04-03T01:18:39.679Z,3.80
2019-04-03T01:19:39.668Z,4.30
2019-04-03T01:20:39.663Z,3.90
2019-04-03T01:21:39.630Z,3.80
2019-04-03T01:22:39.627Z,3.80
2019-04-03T01:23:39.621Z,4.30
2019-04-03T01:24:39.686Z,4.20
2019-04-03T01:25:40.152Z,3.90
2019-04-03T01:26:40.653Z,4.00
2019-04-03T01:27:41.320Z,4.20
2019-04-03T01:28:41.357Z,4.10
2019-04-03T01:29:42.338Z,3.70
2019-04-03T01:30:39.577Z,4.50
2019-04-03T01:31:39.524Z,4.10
2019-04-03T01:32:39.495Z,3.90
2019-04-03T01:33:39.489Z,4.60
2019-04-03T01:34:39.501Z,4.10
2019-04-03T01:35:39.469Z,4.10
2019-04-03T01:36:39.470Z,4.10
2019-04-03T01:37:39.451Z,4.00
2019-04-03T01:38:39.489Z,4.30
2019-04-03T01:39:39.426Z,4.30
2019-04-03T01:40:39.431Z,4.10
2019-04-03T01:41:39.396Z,4.20
2019-04-03T01:42:39.422Z,4.70
2019-04-03T01:43:39.372Z,4.60
2019-04-03T01:44:39.370Z,4.00
2019-04-03T01:45:39.394Z,4.20
2019-04-03T01:46:39.366Z,4.50
2019-04-03T01:47:39.330Z,4.10
2019-04-03T01:48:39.336Z,4.40
2019-04-03T01:49:39.323Z,4.40
2019-04-03T01:50:39.295Z,4.40
2019-04-03T01:51:39.434Z,4.20
2019-04-03T01:52:39.283Z,4.40
2019-04-03T01:53:39.279Z,4.10
2019-04-03T01:54:39.312Z,4.30
2019-04-03T01:55:39.285Z,4.40
2019-04-03T01:56:39.244Z,4.30
2019-04-03T01:57:39.223Z,4.30
2019-04-03T01:58:39.204Z,4.30
2019-04-03T01:59:39.442Z,4.50
2019-04-03T02:00:39.190Z,4.30
2019-04-03T02:01:39.223Z,4.10
2019-04-03T02:02:39.532Z,4.60
2019-04-03T02:03:41.153Z,4.30
2019-04-03T02:04:39.137Z,4.10
2019-04-03T02:05:39.151Z,4.50
2019-04-03T02:06:39.138Z,4.20
2019-04-03T02:07:39.117Z,4.20
2019-04-03T02:08:39.234Z,4.70
2019-04-03T02:09:39.077Z,4.30
2019-04-03T02:10:39.077Z,4.70
2019-04-03T02:11:39.067Z,4.60
2019-04-03T02:12:39.096Z,4.60
2019-04-03T02:13:39.162Z,4.70
2019-04-03T02:14:39.027Z,4.50
2019-04-03T02:15:39.016Z,4.80
2019-04-03T02:16:39.022Z,4.50
2019-04-03T02:17:39.051Z,4.60
2019-04-03T02:18:38.986Z,5.30
2019-04-03T02:19:38.972Z,4.70
2019-04-03T02:20:38.965Z,4.50
2019-04-03T02:21:38.973Z,4.90
2019-04-03T02:22:38.946Z,4.60
2019-04-03T02:23:38.920Z,4.50
2019-04-03T02:24:38.909Z,4.50
2019-04-03T02:25:39.050Z,4.90
2019-04-03T02:26:38.894Z,5.00
2019-04-03T02:27:38.968Z,4.70
2019-04-03T02:28:38.887Z,4.70
2019-04-03T02:29:39.736Z,4.70
2019-04-03T02:30:38.845Z,4.40
2019-04-03T02:31:38.861Z,4.40
2019-04-03T02:32:38.822Z,4.60
2019-04-03T02:33:38.839Z,4.50
2019-04-03T02:34:38.814Z,4.80
2019-04-03T02:35:40.056Z,4.40
2019-04-03T02:36:38.786Z,4.70
2019-04-03T02:37:38.782Z,5.00
2019-04-03T02:38:38.857Z,4.60
2019-04-03T02:39:39.010Z,5.00
2019-04-03T02:40:38.742Z,4.80
2019-04-03T02:41:38.744Z,4.90
2019-04-03T02:42:41.261Z,5.20
2019-04-03T02:43:38.869Z,4.70
2019-04-03T02:44:38.709Z,5.00
2019-04-03T02:45:38.671Z,5.20
2019-04-03T02:46:38.784Z,4.80
2019-04-03T02:47:38.678Z,5.00
2019-04-03T02:48:38.997Z,5.20
2019-04-03T02:49:41.456Z,4.90
2019-04-03T02:50:38.637Z,4.70
2019-04-03T02:51:38.617Z,4.80
2019-04-03T02:52:38.646Z,5.20
2019-04-03T02:53:38.776Z,4.50
2019-04-03T02:54:38.578Z,5.00
2019-04-03T02:55:40.078Z,5.00
2019-04-03T02:56:38.555Z,5.00
2019-04-03T02:57:38.692Z,5.20
2019-04-03T02:58:38.561Z,4.90
2019-04-03T02:59:38.547Z,4.90
2019-04-03T03:00:38.511Z,5.30
2019-04-03T03:01:39.846Z,5.00
2019-04-03T03:02:38.719Z,5.20
2019-04-03T03:03:38.503Z,5.00
2019-04-03T03:04:38.484Z,5.30
2019-04-03T03:05:38.694Z,5.30
2019-04-03T03:06:38.439Z,5.10
2019-04-03T03:07:38.811Z,5.30
2019-04-03T03:08:41.904Z,5.50
2019-04-03T03:09:38.612Z,5.00
2019-04-03T03:10:38.390Z,5.10
2019-04-03T03:11:38.429Z,5.20
2019-04-03T03:12:38.390Z,5.40
2019-04-03T03:13:38.392Z,5.20
2019-04-03T03:14:39.807Z,5.00
2019-04-03T03:15:38.347Z,5.60
2019-04-03T03:16:38.329Z,5.40
2019-04-03T03:17:38.451Z,5.10
2019-04-03T03:18:38.332Z,5.10
2019-04-03T03:19:38.300Z,5.30
2019-04-03T03:20:39.818Z,5.20
2019-04-03T03:21:38.275Z,5.20
2019-04-03T03:22:38.264Z,5.50
2019-04-03T03:23:38.293Z,5.10
2019-04-03T03:24:38.648Z,5.10
2019-04-03T03:25:38.258Z,5.30
2019-04-03T03:26:38.220Z,5.10
2019-04-03T03:27:41.206Z,5.20
2019-04-03T03:28:38.230Z,5.40
2019-04-03T03:29:38.305Z,5.00
2019-04-03T03:30:45.927Z,5.20
2019-04-03T03:32:02.422Z,5.20
2019-04-03T03:32:39.964Z,5.60
2019-04-03T03:33:40.413Z,5.30
2019-04-03T03:34:54.859Z,5.20
2019-04-03T03:35:43.985Z,5.40
2019-04-03T03:36:39.290Z,5.20
2019-04-03T03:37:38.575Z,5.60
2019-04-03T03:38:39.419Z,5.40
2019-04-03T03:39:38.325Z,5.20
2019-04-03T03:40:38.272Z,5.50
2019-04-03T03:41:38.367Z,5.10
2019-04-03T03:42:38.180Z,5.20
2019-04-03T03:43:38.975Z,5.20
2019-04-03T03:44:38.186Z,5.60
2019-04-03T03:45:38.301Z,5.00
2019-04-03T03:46:38.009Z,5.30
2019-04-03T03:47:37.988Z,5.40
2019-04-03T03:48:42.482Z,5.60
2019-04-03T03:49:38.964Z,5.20
2019-04-03T03:50:37.949Z,5.40
2019-04-03T03:51:37.954Z,4.70
2019-04-03T03:52:38.338Z,5.10
2019-04-03T03:53:38.063Z,5.60
2019-04-03T03:54:37.903Z,4.80
2019-04-03T03:55:37.909Z,5.20
2019-04-03T03:56:38.208Z,5.40
2019-04-03T03:57:39.145Z,5.60
2019-04-03T03:58:37.861Z,4.90
2019-04-03T03:59:37.853Z,5.50
2019-04-03T04:00:37.861Z,5.50
2019-04-03T04:01:37.836Z,5.20
2019-04-03T04:02:40.914Z,5.20
2019-04-03T04:03:41.058Z,4.90
2019-04-03T04:04:37.792Z,5.30
2019-04-03T04:05:37.801Z,5.20
2019-04-03T04:06:37.778Z,5.30
2019-04-03T04:07:38.248Z,5.50
2019-04-03T04:08:37.766Z,5.30
2019-04-03T04:09:37.994Z,5.70
2019-04-03T04:10:37.785Z,5.80
2019-04-03T04:11:37.809Z,5.50
2019-04-03T04:12:41.201Z,5.60
2019-04-03T04:13:37.862Z,5.50
2019-04-03T04:14:37.683Z,5.50
2019-04-03T04:15:37.966Z,5.50
2019-04-03T04:16:38.359Z,5.40
2019-04-03T04:17:38.037Z,5.60
2019-04-03T04:18:37.636Z,5.60
2019-04-03T04:19:37.812Z,6.10
2019-04-03T04:20:38.519Z,5.80
2019-04-03T04:21:37.647Z,5.50
2019-04-03T04:22:37.659Z,5.50
2019-04-03T04:23:37.630Z,5.70
2019-04-03T04:24:37.572Z,6.30
2019-04-03T04:25:37.782Z,5.70
2019-04-03T04:26:37.571Z,6.00
2019-04-03T04:27:39.008Z,6.00
2019-04-03T04:28:39.225Z,5.80
2019-04-03T04:29:37.710Z,6.30
2019-04-03T04:30:37.555Z,6.20
2019-04-03T04:31:37.515Z,5.70
2019-04-03T04:32:37.640Z,6.20
2019-04-03T04:33:37.476Z,6.10
2019-04-03T04:34:37.488Z,6.20
2019-04-03T04:35:37.463Z,6.30
2019-04-03T04:36:37.466Z,6.00
2019-04-03T04:37:40.017Z,6.60
2019-04-03T04:38:37.483Z,6.40
2019-04-03T04:39:37.505Z,6.40
2019-04-03T04:40:37.455Z,6.20
2019-04-03T04:41:37.413Z,6.50
2019-04-03T04:42:37.411Z,6.60
2019-04-03T04:43:38.972Z,6.60
2019-04-03T04:44:38.893Z,6.50
2019-04-03T04:45:37.360Z,6.50
2019-04-03T04:46:37.349Z,6.30
2019-04-03T04:47:37.343Z,6.40
2019-04-03T04:48:37.342Z,6.50
2019-04-03T04:49:37.332Z,6.40
2019-04-03T04:50:37.308Z,6.40
2019-04-03T04:51:37.328Z,6.60
2019-04-03T04:52:37.290Z,7.00
2019-04-03T04:53:37.262Z,6.40
2019-04-03T04:54:37.270Z,6.40
2019-04-03T04:55:37.463Z,6.30
2019-04-03T04:56:38.124Z,6.50
2019-04-03T04:57:37.274Z,6.80
2019-04-03T04:58:37.218Z,6.30
2019-04-03T04:59:37.228Z,6.50
2019-04-03T05:00:37.217Z,6.50
2019-04-03T05:01:37.176Z,7.00
2019-04-03T05:02:37.187Z,6.30
2019-04-03T05:03:37.415Z,6.40
2019-04-03T05:04:37.149Z,6.50
2019-04-03T05:05:37.138Z,6.00
2019-04-03T05:06:37.115Z,6.20
2019-04-03T05:07:37.110Z,5.90
2019-04-03T05:08:37.128Z,6.40
2019-04-03T05:09:37.083Z,6.40
2019-04-03T05:10:37.314Z,5.80
2019-04-03T05:11:39.138Z,6.30
2019-04-03T05:12:39.022Z,6.20
2019-04-03T05:13:37.043Z,6.20
2019-04-03T05:14:37.041Z,6.70
2019-04-03T05:15:37.023Z,6.30
2019-04-03T05:16:37.006Z,6.20
2019-04-03T05:17:36.998Z,6.70
2019-04-03T05:18:37.006Z,6.40
2019-04-03T05:19:37.149Z,6.50
2019-04-03T05:20:36.965Z,6.60
2019-04-03T05:21:36.962Z,6.40
2019-04-03T05:22:36.966Z,6.80
2019-04-03T05:23:36.968Z,6.50
2019-04-03T05:24:36.937Z,6.20
2019-04-03T05:25:36.917Z,6.20
2019-04-03T05:26:36.933Z,6.70
2019-04-03T05:27:36.914Z,6.50
2019-04-03T05:28:36.909Z,6.50
2019-04-03T05:29:37.172Z,6.40
2019-04-03T05:30:37.951Z,6.70
2019-04-03T05:31:38.490Z,6.30
2019-04-03T05:32:36.841Z,6.60
2019-04-03T05:33:36.829Z,6.90
2019-04-03T05:34:36.939Z,6.60
2019-04-03T05:35:37.644Z,6.50
2019-04-03T05:36:36.790Z,6.80
2019-04-03T05:37:36.914Z,6.60
2019-04-03T05:38:38.036Z,6.70
2019-04-03T05:39:36.784Z,6.70
2019-04-03T05:40:36.765Z,6.70
2019-04-03T05:41:36.745Z,6.60
2019-04-03T05:42:36.725Z,6.50
2019-04-03T05:43:36.751Z,6.70
2019-04-03T05:44:36.705Z,6.60
2019-04-03T05:45:36.697Z,6.60
2019-04-03T05:46:37.589Z,6.70
2019-04-03T05:47:38.399Z,6.70
2019-04-03T05:48:36.921Z,7.10
2019-04-03T05:49:36.650Z,7.00
2019-04-03T05:50:37.099Z,6.50
2019-04-03T05:51:36.628Z,6.80
2019-04-03T05:52:36.618Z,7.00
2019-04-03T05:53:37.859Z,6.60
2019-04-03T05:54:38.492Z,6.50
2019-04-03T05:55:36.595Z,7.00
2019-04-03T05:56:36.597Z,6.20
2019-04-03T05:57:36.774Z,6.80
2019-04-03T05:58:36.551Z,6.50
2019-04-03T05:59:36.586Z,6.60
2019-04-03T06:00:38.134Z,6.40
2019-04-03T06:01:36.782Z,6.90
2019-04-03T06:02:36.508Z,6.70
2019-04-03T06:03:40.790Z,6.40
2019-04-03T06:04:38.756Z,6.80
2019-04-03T06:05:36.635Z,6.40
2019-04-03T06:06:36.465Z,6.40
2019-04-03T06:07:36.453Z,6.20
2019-04-03T06:08:36.474Z,6.50
2019-04-03T06:09:36.619Z,6.10
2019-04-03T06:10:37.558Z,6.30
2019-04-03T06:11:36.552Z,6.20
2019-04-03T06:12:37.720Z,6.30
2019-04-03T06:13:36.512Z,6.00
2019-04-03T06:14:36.578Z,6.50
2019-04-03T06:15:36.414Z,6.50
2019-04-03T06:16:36.487Z,6.30
2019-04-03T06:17:36.362Z,5.80
2019-04-03T06:18:36.517Z,5.80
2019-04-03T06:19:39.177Z,5.90
2019-04-03T06:20:36.389Z,5.70
2019-04-03T06:21:36.330Z,5.70
2019-04-03T06:22:36.286Z,6.60
2019-04-03T06:23:36.279Z,5.80
2019-04-03T06:24:36.297Z,6.40
2019-04-03T06:25:36.263Z,6.10
2019-04-03T06:26:37.792Z,6.20
2019-04-03T06:27:36.434Z,6.20
2019-04-03T06:28:36.221Z,6.30
2019-04-03T06:29:36.212Z,5.60
2019-04-03T06:30:36.205Z,6.00
2019-04-03T06:31:36.415Z,6.20
2019-04-03T06:32:36.176Z,5.40
2019-04-03T06:33:36.687Z,6.50
2019-04-03T06:34:38.442Z,5.40
2019-04-03T06:35:36.167Z,5.90
2019-04-03T06:36:36.138Z,5.90
2019-04-03T06:37:36.122Z,5.60
2019-04-03T06:38:36.115Z,6.30
2019-04-03T06:39:36.106Z,6.10
2019-04-03T06:40:36.358Z,5.90
2019-04-03T06:41:36.076Z,6.50
2019-04-03T06:42:36.075Z,5.80
2019-04-03T06:43:36.053Z,6.00
2019-04-03T06:44:36.120Z,6.20
2019-04-03T06:45:36.058Z,5.70
2019-04-03T06:46:36.063Z,6.30
2019-04-03T06:47:36.015Z,6.00
2019-04-03T06:48:37.131Z,6.00
2019-04-03T06:49:35.988Z,6.40
2019-04-03T06:50:35.994Z,5.60
2019-04-03T06:51:35.996Z,5.80
2019-04-03T06:52:36.025Z,6.00
2019-04-03T06:53:35.961Z,5.60
2019-04-03T06:54:35.956Z,5.90
2019-04-03T06:55:36.514Z,6.00
2019-04-03T06:56:35.964Z,6.00
2019-04-03T06:57:35.905Z,6.30
2019-04-03T06:58:39.001Z,5.50
2019-04-03T06:59:35.914Z,6.10
2019-04-03T07:00:35.872Z,6.10
2019-04-03T07:01:36.023Z,6.10
2019-04-03T07:02:35.871Z,6.10
2019-04-03T07:03:35.856Z,5.90
2019-04-03T07:04:37.498Z,6.30
2019-04-03T07:05:35.844Z,6.00
2019-04-03T07:06:35.829Z,5.80
2019-04-03T07:07:35.831Z,5.90
2019-04-03T07:08:38.073Z,5.90
2019-04-03T07:09:36.924Z,6.00
2019-04-03T07:10:36.526Z,5.60
2019-04-03T07:11:35.782Z,5.90
2019-04-03T07:12:35.893Z,6.00
2019-04-03T07:13:36.020Z,5.80
2019-04-03T07:14:35.722Z,5.90
2019-04-03T07:15:35.708Z,5.90
2019-04-03T07:16:38.169Z,5.90
2019-04-03T07:17:35.982Z,5.70
2019-04-03T07:18:37.062Z,5.90
2019-04-03T07:19:35.663Z,5.60
2019-04-03T07:20:35.657Z,5.90
2019-04-03T07:21:35.698Z,6.70
2019-04-03T07:22:35.657Z,6.20
2019-04-03T07:23:35.863Z,6.40
2019-04-03T07:24:35.614Z,6.40
2019-04-03T07:25:35.810Z,6.10
2019-04-03T07:26:36.299Z,5.70
2019-04-03T07:27:37.139Z,5.50
2019-04-03T07:28:35.575Z,5.90
2019-04-03T07:29:35.611Z,5.80
2019-04-03T07:30:35.578Z,6.10
2019-04-03T07:31:35.542Z,5.50
2019-04-03T07:32:35.714Z,5.70
2019-04-03T07:33:35.520Z,5.80
2019-04-03T07:34:35.514Z,6.00
2019-04-03T07:35:35.498Z,6.10
2019-04-03T07:36:35.486Z,5.70
2019-04-03T07:37:35.481Z,6.10
2019-04-03T07:38:35.472Z,5.90
2019-04-03T07:39:35.470Z,5.50
2019-04-03T07:40:35.501Z,5.20
2019-04-03T07:41:35.449Z,5.40
2019-04-03T07:42:35.657Z,5.60
2019-04-03T07:43:35.647Z,5.70
2019-04-03T07:44:35.396Z,5.70
2019-04-03T07:45:35.381Z,6.00
2019-04-03T07:46:35.375Z,5.10
2019-04-03T07:47:35.885Z,5.30
2019-04-03T07:48:35.800Z,5.10
2019-04-03T07:49:35.357Z,5.30
2019-04-03T07:50:36.972Z,5.40
2019-04-03T07:51:35.327Z,4.90
2019-04-03T07:52:35.314Z,5.20
2019-04-03T07:53:35.319Z,5.00
2019-04-03T07:54:35.289Z,4.90
2019-04-03T07:55:35.282Z,5.40
2019-04-03T07:56:35.294Z,5.40
2019-04-03T07:57:36.682Z,5.40
2019-04-03T07:58:35.287Z,5.30
2019-04-03T07:59:35.229Z,5.30
2019-04-03T08:00:36.235Z,5.40
2019-04-03T08:01:35.214Z,5.40
2019-04-03T08:02:35.231Z,5.00
2019-04-03T08:03:35.220Z,5.10
2019-04-03T08:04:35.424Z,5.40
2019-04-03T08:05:35.421Z,5.20
2019-04-03T08:06:36.033Z,4.40
2019-04-03T08:07:35.147Z,5.10
2019-04-03T08:08:35.162Z,5.00
2019-04-03T08:09:35.151Z,5.30
2019-04-03T08:10:37.496Z,4.80
2019-04-03T08:11:37.281Z,5.00
2019-04-03T08:12:35.907Z,4.50
2019-04-03T08:13:37.618Z,4.70
2019-04-03T08:14:35.109Z,4.70
2019-04-03T08:15:35.275Z,4.60
2019-04-03T08:16:35.080Z,5.20
2019-04-03T08:17:35.048Z,4.90
2019-04-03T08:18:35.026Z,5.10
2019-04-03T08:19:35.031Z,4.40
2019-04-03T08:20:35.004Z,4.40
2019-04-03T08:21:34.996Z,4.40
2019-04-03T08:22:34.980Z,4.40
2019-04-03T08:23:37.042Z,4.30
2019-04-03T08:24:35.008Z,4.10
2019-04-03T08:25:35.101Z,4.50
2019-04-03T08:26:34.968Z,3.80
2019-04-03T08:27:34.956Z,4.10
2019-04-03T08:28:34.912Z,4.10
2019-04-03T08:29:37.936Z,3.70
2019-04-03T08:30:34.896Z,4.20
2019-04-03T08:31:35.137Z,4.10
2019-04-03T08:32:34.875Z,4.00
2019-04-03T08:33:34.859Z,3.80
2019-04-03T08:34:34.868Z,3.60
2019-04-03T08:35:35.870Z,3.20
2019-04-03T08:36:35.233Z,3.70
2019-04-03T08:37:34.816Z,3.50
2019-04-03T08:38:34.922Z,3.20
2019-04-03T08:39:35.053Z,3.50
2019-04-03T08:40:34.790Z,3.30
2019-04-03T08:41:36.937Z,3.20
2019-04-03T08:42:34.794Z,3.00
2019-04-03T08:43:34.758Z,3.30
2019-04-03T08:44:35.803Z,3.70
2019-04-03T08:45:37.798Z,3.30
2019-04-03T08:46:34.715Z,3.20
2019-04-03T08:47:37.085Z,3.10
2019-04-03T08:48:34.694Z,3.30
2019-04-03T08:49:34.967Z,2.90
2019-04-03T08:50:34.703Z,3.10
2019-04-03T08:51:34.985Z,3.10
2019-04-03T08:52:36.883Z,3.30
2019-04-03T08:53:34.781Z,3.40
2019-04-03T08:54:34.631Z,3.00
2019-04-03T08:55:35.310Z,3.50
2019-04-03T08:56:34.607Z,3.40
2019-04-03T08:57:34.590Z,3.40
2019-04-03T08:58:34.762Z,3.50
2019-04-03T08:59:34.584Z,3.30
2019-04-03T09:00:34.573Z,3.40
2019-04-03T09:01:37.097Z,3.40
2019-04-03T09:02:34.540Z,3.40
2019-04-03T09:03:34.528Z,3.80
2019-04-03T09:04:34.796Z,3.60
2019-04-03T09:05:34.518Z,3.70
2019-04-03T09:06:34.502Z,3.60
2019-04-03T09:07:34.708Z,3.60
2019-04-03T09:08:34.469Z,3.50
2019-04-03T09:09:35.363Z,3.50
2019-04-03T09:10:37.024Z,3.60
2019-04-03T09:11:36.316Z,3.70
2019-04-03T09:12:37.530Z,3.50
2019-04-03T09:13:34.643Z,4.00
2019-04-03T09:14:34.410Z,4.40
2019-04-03T09:15:34.416Z,4.20
2019-04-03T09:16:34.563Z,4.20
2019-04-03T09:17:34.726Z,4.60
2019-04-03T09:18:37.821Z,5.30
2019-04-03T09:19:34.352Z,5.30
2019-04-03T09:20:35.553Z,5.40
2019-04-03T09:21:34.346Z,5.30
2019-04-03T09:22:34.348Z,5.90
2019-04-03T09:23:34.341Z,6.10
2019-04-03T09:24:34.291Z,6.70
2019-04-03T09:25:34.320Z,6.40
2019-04-03T09:26:37.063Z,6.80
2019-04-03T09:27:34.270Z,5.50
2019-04-03T09:28:34.251Z,5.40
2019-04-03T09:29:34.247Z,4.80
2019-04-03T09:30:34.259Z,4.30
2019-04-03T09:31:34.247Z,4.70
2019-04-03T09:32:36.488Z,3.60
2019-04-03T09:33:34.211Z,3.50
2019-04-03T09:34:34.565Z,3.80
2019-04-03T09:35:34.351Z,3.70
2019-04-03T09:36:34.882Z,3.10
2019-04-03T09:37:37.192Z,3.00
2019-04-03T09:38:36.329Z,3.30
2019-04-03T09:39:34.158Z,3.10
2019-04-03T09:40:34.121Z,3.10
2019-04-03T09:41:34.111Z,3.00
2019-04-03T09:42:34.134Z,3.50
2019-04-03T09:43:34.393Z,2.50
2019-04-03T09:44:34.200Z,2.70
2019-04-03T09:45:34.067Z,2.90
2019-04-03T09:46:34.076Z,2.60
2019-04-03T09:47:34.967Z,2.70
2019-04-03T09:48:34.848Z,2.50
2019-04-03T09:49:34.021Z,2.70
2019-04-03T09:50:34.015Z,2.40
2019-04-03T09:51:34.009Z,2.20
2019-04-03T09:52:42.070Z,2.80
2019-04-03T09:53:35.000Z,2.10
2019-04-03T09:54:34.016Z,2.30
2019-04-03T09:55:36.968Z,2.10
2019-04-03T09:56:36.734Z,2.40
2019-04-03T09:57:34.248Z,2.20
2019-04-03T09:58:35.633Z,2.30
2019-04-03T09:59:34.154Z,2.20
2019-04-03T10:00:34.188Z,2.80
2019-04-03T10:01:33.968Z,2.50
2019-04-03T10:02:33.904Z,2.50
2019-04-03T10:03:33.869Z,2.20
2019-04-03T10:04:33.864Z,2.60
2019-04-03T10:05:33.851Z,2.70
2019-04-03T10:06:33.862Z,2.80
2019-04-03T10:07:36.396Z,2.30
2019-04-03T10:08:33.919Z,2.60
2019-04-03T10:09:33.801Z,2.50
2019-04-03T10:10:33.801Z,2.90
2019-04-03T10:11:33.784Z,2.70
2019-04-03T10:12:33.787Z,2.60
2019-04-03T10:13:33.751Z,2.70
2019-04-03T10:14:33.780Z,2.60
2019-04-03T10:15:33.745Z,2.70
2019-04-03T10:16:35.546Z,2.40
2019-04-03T10:17:36.619Z,2.40
2019-04-03T10:18:33.699Z,2.50
2019-04-03T10:19:33.689Z,2.70
2019-04-03T10:20:33.690Z,2.70
2019-04-03T10:21:33.829Z,2.40
2019-04-03T10:22:33.655Z,2.60
2019-04-03T10:23:33.680Z,2.40
2019-04-03T10:24:33.641Z,2.70
2019-04-03T10:25:36.521Z,2.30
2019-04-03T10:26:33.964Z,2.40
2019-04-03T10:27:33.619Z,2.20
2019-04-03T10:28:33.634Z,2.40
2019-04-03T10:29:33.594Z,1.90
2019-04-03T10:30:33.574Z,2.20
2019-04-03T10:31:33.633Z,2.00
2019-04-03T10:32:33.619Z,2.10
2019-04-03T10:33:33.603Z,1.80
2019-04-03T10:34:35.413Z,1.80
2019-04-03T10:35:33.518Z,1.60
2019-04-03T10:36:33.506Z,1.70
2019-04-03T10:37:33.502Z,1.40
2019-04-03T10:38:33.752Z,1.50
2019-04-03T10:39:33.468Z,1.50
2019-04-03T10:40:33.476Z,1.60
2019-04-03T10:41:33.772Z,1.40
2019-04-03T10:42:33.725Z,1.60
2019-04-03T10:43:36.634Z,1.40
2019-04-03T10:44:33.419Z,1.80
2019-04-03T10:45:33.648Z,1.60
2019-04-03T10:46:33.390Z,1.10
2019-04-03T10:47:41.271Z,1.40
2019-04-03T10:48:34.404Z,1.20
2019-04-03T10:49:33.362Z,1.40
2019-04-03T10:50:36.419Z,1.30
2019-04-03T10:51:33.350Z,1.30
2019-04-03T10:52:33.348Z,1.10
2019-04-03T10:53:33.343Z,1.20
2019-04-03T10:54:33.305Z,1.50
2019-04-03T10:55:33.554Z,1.00
2019-04-03T10:56:33.295Z,1.00
2019-04-03T10:57:34.765Z,0.80
2019-04-03T10:58:33.372Z,0.70
2019-04-03T10:59:33.271Z,0.90
2019-04-03T11:00:33.237Z,1.10
2019-04-03T11:01:33.450Z,1.00
2019-04-03T11:02:33.280Z,0.80
2019-04-03T11:03:33.217Z,1.00
2019-04-03T11:04:33.208Z,1.00
2019-04-03T11:05:33.203Z,0.90
2019-04-03T11:06:35.205Z,1.30
2019-04-03T11:07:33.507Z,0.90
2019-04-03T11:08:33.151Z,1.30
2019-04-03T11:09:33.390Z,0.90
2019-04-03T11:10:33.211Z,1.00
2019-04-03T11:11:33.405Z,1.10
2019-04-03T11:12:33.324Z,0.80
2019-04-03T11:13:34.313Z,0.80
2019-04-03T11:14:33.097Z,1.10
2019-04-03T11:15:33.068Z,0.80
2019-04-03T11:16:33.216Z,0.80
2019-04-03T11:17:33.045Z,0.70
2019-04-03T11:18:33.042Z,1.00
2019-04-03T11:19:33.282Z,0.60
2019-04-03T11:20:35.594Z,0.80
2019-04-03T11:21:33.012Z,0.80
2019-04-03T11:22:40.370Z,0.80
2019-04-03T11:23:40.523Z,0.80
2019-04-03T11:24:34.013Z,0.80
2019-04-03T11:25:32.991Z,0.70
2019-04-03T11:26:33.173Z,0.90
2019-04-03T11:27:42.211Z,0.70
2019-04-03T11:28:37.068Z,0.70
2019-04-03T11:29:33.180Z,0.70
2019-04-03T11:30:32.921Z,0.90
2019-04-03T11:31:36.090Z,0.70
2019-04-03T11:32:34.053Z,0.70
2019-04-03T11:33:33.016Z,0.60
2019-04-03T11:34:32.879Z,0.60
2019-04-03T11:35:32.895Z,0.80
2019-04-03T11:36:32.837Z,0.90
2019-04-03T11:37:33.768Z,0.60
2019-04-03T11:38:32.815Z,0.70
2019-04-03T11:39:33.169Z,0.60
2019-04-03T11:40:32.821Z,0.60
2019-04-03T11:41:32.793Z,0.40
2019-04-03T11:42:32.789Z,0.80
2019-04-03T11:43:32.841Z,0.80
2019-04-03T11:44:32.852Z,0.60
2019-04-03T11:45:32.756Z,0.50
2019-04-03T11:46:32.728Z,0.50
2019-04-03T11:47:32.715Z,0.50
2019-04-03T11:48:32.706Z,0.50
2019-04-03T11:49:32.696Z,0.50
2019-04-03T11:50:32.695Z,0.50
2019-04-03T11:51:34.157Z,0.40
2019-04-03T11:52:32.676Z,0.40
2019-04-03T11:53:34.609Z,0.30
2019-04-03T11:54:32.859Z,0.70
2019-04-03T11:55:32.644Z,0.40
2019-04-03T11:56:32.641Z,0.40
2019-04-03T11:57:33.006Z,0.50
2019-04-03T11:58:32.593Z,0.40
2019-04-03T11:59:32.735Z,0.50
2019-04-03T12:00:32.610Z,0.40
2019-04-03T12:01:32.605Z,0.40
2019-04-03T12:02:32.948Z,0.40
2019-04-03T12:03:32.551Z,0.40
2019-04-03T12:04:32.533Z,0.50
2019-04-03T12:05:32.542Z,0.50
2019-04-03T12:06:32.501Z,0.60
2019-04-03T12:07:32.652Z,0.40
2019-04-03T12:08:32.498Z,0.40
2019-04-03T12:09:32.960Z,0.50
2019-04-03T12:10:34.144Z,0.60
2019-04-03T12:11:32.762Z,0.50
2019-04-03T12:12:32.739Z,0.40
2019-04-03T12:13:32.442Z,0.50
2019-04-03T12:14:32.424Z,0.70
2019-04-03T12:15:33.896Z,0.50
2019-04-03T12:16:32.641Z,0.50
2019-04-03T12:17:32.405Z,0.40
2019-04-03T12:18:34.146Z,0.30
2019-04-03T12:19:32.651Z,0.50
2019-04-03T12:20:32.703Z,0.50
2019-04-03T12:21:32.377Z,0.40
2019-04-03T12:22:32.333Z,0.40
2019-04-03T12:23:32.356Z,0.40
2019-04-03T12:24:32.600Z,0.40
2019-04-03T12:25:34.153Z,0.40
2019-04-03T12:26:32.342Z,0.50
2019-04-03T12:27:35.145Z,0.40
2019-04-03T12:28:32.296Z,0.50
2019-04-03T12:29:32.264Z,0.70
2019-04-03T12:30:32.597Z,0.60
2019-04-03T12:31:32.537Z,0.60
2019-04-03T12:32:39.323Z,0.60
2019-04-03T12:33:33.290Z,0.50
2019-04-03T12:34:32.213Z,0.40
2019-04-03T12:35:32.197Z,0.50
2019-04-03T12:36:32.496Z,0.40
2019-04-03T12:37:32.335Z,0.70
2019-04-03T12:38:32.167Z,0.50
2019-04-03T12:39:32.146Z,0.70
2019-04-03T12:40:32.878Z,0.50
2019-04-03T12:41:32.138Z,0.60
2019-04-03T12:42:32.117Z,0.70
2019-04-03T12:43:32.112Z,0.50
2019-04-03T12:44:32.132Z,0.80
2019-04-03T12:45:32.528Z,0.60
2019-04-03T12:46:33.426Z,0.60
2019-04-03T12:47:32.503Z,0.70
2019-04-03T12:48:32.174Z,0.50
2019-04-03T12:49:32.185Z,0.60
2019-04-03T12:50:32.410Z,0.90
2019-04-03T12:51:32.475Z,0.50
2019-04-03T12:52:32.014Z,0.60
2019-04-03T12:53:32.315Z,0.60
2019-04-03T12:54:32.261Z,0.70
2019-04-03T12:55:31.966Z,0.80
2019-04-03T12:56:32.371Z,0.70
2019-04-03T12:57:33.386Z,0.50
2019-04-03T12:58:32.223Z,0.50
2019-04-03T12:59:31.962Z,0.70
2019-04-03T13:00:31.933Z,0.60
2019-04-03T13:01:31.993Z,0.60
2019-04-03T13:02:31.926Z,0.60
2019-04-03T13:03:32.000Z,0.60
2019-04-03T13:04:32.805Z,0.60
2019-04-03T13:05:32.263Z,0.60
2019-04-03T13:06:31.846Z,0.70
2019-04-03T13:07:31.868Z,0.80
2019-04-03T13:08:31.828Z,0.80
2019-04-03T13:09:31.902Z,0.60
2019-04-03T13:10:40.658Z,0.80
2019-04-03T13:11:33.592Z,0.60
2019-04-03T13:12:31.806Z,0.70
2019-04-03T13:13:31.785Z,0.80
2019-04-03T13:14:33.436Z,1.00
2019-04-03T13:15:31.756Z,1.00
2019-04-03T13:16:32.168Z,1.10
2019-04-03T13:17:31.732Z,1.20
2019-04-03T13:18:32.107Z,1.10